createdAt,value
2023-01-19T00:00:46.154Z,99413.82
2023-01-19T00:01:49.019Z,99430.19
2023-01-19T00:02:53.735Z,99420.86
2023-01-19T00:03:56.915Z,99422.75
2023-01-19T00:05:02.678Z,99422.45
2023-01-19T00:06:07.143Z,99425.75
2023-01-19T00:07:12.193Z,99426.23
2023-01-19T00:08:17.036Z,99417.38
2023-01-19T00:09:20.771Z,99429.53
2023-01-19T00:10:27.401Z,99426.89
2023-01-19T00:11:34.489Z,99426.98
2023-01-19T00:12:37.969Z,99428.39
2023-01-19T00:13:41.937Z,99442.20
2023-01-19T00:14:44.133Z,99443.91
2023-01-19T00:15:47.640Z,99443.48
2023-01-19T00:16:51.571Z,99444.52
2023-01-19T00:17:57.939Z,99445.66
2023-01-19T00:19:01.147Z,99449.23
2023-01-19T00:20:05.084Z,99449.66
2023-01-19T00:21:08.410Z,99446.79
2023-01-19T00:22:11.919Z,99454.09
2023-01-19T00:23:15.632Z,99447.86
2023-01-19T00:24:19.139Z,99443.20
2023-01-19T00:25:22.317Z,99434.44
2023-01-19T00:26:25.937Z,99440.28
2023-01-19T00:27:29.954Z,99430.77
2023-01-19T00:28:32.131Z,99422.27
2023-01-19T00:29:35.927Z,99423.02
2023-01-19T00:30:39.840Z,99416.14
2023-01-19T00:31:42.113Z,99422.36
2023-01-19T00:32:44.764Z,99418.97
2023-01-19T00:33:51.033Z,99413.59
2023-01-19T00:34:54.716Z,99419.91
2023-01-19T00:35:56.957Z,99431.22
2023-01-19T00:37:03.456Z,99427.64
2023-01-19T00:38:08.879Z,99424.25
2023-01-19T00:39:12.285Z,99431.52
2023-01-19T00:40:16.975Z,99430.77
2023-01-19T00:41:22.213Z,99427.38
2023-01-19T00:42:39.809Z,99425.67
2023-01-19T00:43:43.958Z,99421.05
2023-01-19T00:44:46.399Z,99433.72
2023-01-19T00:45:50.869Z,99435.61
2023-01-19T00:46:56.856Z,99436.36
2023-01-19T00:48:00.160Z,99442.27
2023-01-19T00:49:04.825Z,99443.02
2023-01-19T00:50:08.949Z,99443.86
2023-01-19T00:51:12.358Z,99441.12
2023-01-19T00:52:17.974Z,99448.48
2023-01-19T00:53:21.448Z,99444.37
2023-01-19T00:54:26.883Z,99448.71
2023-01-19T00:55:31.688Z,99435.80
2023-01-19T00:56:38.568Z,99442.13
2023-01-19T00:57:43.383Z,99433.64
2023-01-19T00:58:46.806Z,99444.00
2023-01-19T00:59:49.154Z,99438.82
2023-01-19T01:00:54.172Z,99447.78
2023-01-19T01:01:57.874Z,99446.49
2023-01-19T01:03:01.890Z,99456.80
2023-01-19T01:04:06.455Z,99463.29
2023-01-19T01:05:10.563Z,99463.20
2023-01-19T01:06:14.581Z,99461.22
2023-01-19T01:07:20.935Z,99461.66
2023-01-19T01:08:26.384Z,99462.66
2023-01-19T01:09:30.321Z,99469.55
2023-01-19T01:10:33.500Z,99471.34
2023-01-19T01:11:36.169Z,99467.94
2023-01-19T01:12:38.735Z,99469.11
2023-01-19T01:13:43.001Z,99477.56
2023-01-19T01:14:46.693Z,99485.56
2023-01-19T01:15:51.643Z,99483.68
2023-01-19T01:16:57.224Z,99477.30
2023-01-19T01:18:00.435Z,99469.64
2023-01-19T01:19:03.775Z,99466.16
2023-01-19T01:20:07.561Z,99465.20
2023-01-19T01:21:11.472Z,99467.94
2023-01-19T01:22:16.399Z,99471.34
2023-01-19T01:23:23.615Z,99467.84
2023-01-19T01:24:27.018Z,99471.23
2023-01-19T01:25:35.295Z,99470.58
2023-01-19T01:26:38.728Z,99472.28
2023-01-19T01:27:42.870Z,99472.66
2023-01-19T01:28:45.501Z,99469.51
2023-01-19T01:29:49.028Z,99460.73
2023-01-19T01:30:55.900Z,99467.56
2023-01-19T01:32:00.138Z,99462.19
2023-01-19T01:33:03.486Z,99458.89
2023-01-19T01:34:06.798Z,99458.80
2023-01-19T01:35:11.685Z,99463.98
2023-01-19T01:36:15.100Z,99461.25
2023-01-19T01:37:19.103Z,99460.50
2023-01-19T01:38:22.345Z,99461.63
2023-01-19T01:39:26.200Z,99459.65
2023-01-19T01:40:29.613Z,99459.65
2023-01-19T01:41:32.909Z,99472.56
2023-01-19T01:42:41.305Z,99468.41
2023-01-19T01:43:46.493Z,99464.73
2023-01-19T01:44:51.673Z,99479.12
2023-01-19T01:45:55.953Z,99469.31
2023-01-19T01:46:59.749Z,99464.73
2023-01-19T01:48:04.078Z,99455.03
2023-01-19T01:49:16.250Z,99446.79
2023-01-19T01:50:24.961Z,99453.58
2023-01-19T01:51:30.243Z,99450.94
2023-01-19T01:52:37.866Z,99450.84
2023-01-19T01:53:40.656Z,99454.23
2023-01-19T01:54:44.842Z,99454.33
2023-01-19T01:55:49.624Z,99457.72
2023-01-19T01:56:54.671Z,99452.44
2023-01-19T01:59:58.822Z,99460.64
2023-01-19T02:01:20.046Z,99465.27
2023-01-19T02:02:45.829Z,99474.97
2023-01-19T02:03:48.708Z,99471.61
2023-01-19T02:04:52.944Z,99469.07
2023-01-19T02:06:03.497Z,99465.02
2023-01-19T02:07:26.912Z,99469.95
2023-01-19T02:08:59.552Z,99465.12
2023-01-19T02:10:22.897Z,99469.45
2023-01-19T02:11:46.381Z,99466.72
2023-01-19T02:13:10.472Z,99472.75
2023-01-19T02:14:14.148Z,99475.30
2023-01-19T02:15:19.637Z,99480.38
2023-01-19T02:16:23.394Z,99478.88
2023-01-19T02:17:27.795Z,99476.23
2023-01-19T02:18:33.285Z,99464.92
2023-01-19T02:19:44.163Z,99470.77
2023-01-19T02:20:49.590Z,99465.02
2023-01-19T02:22:00.721Z,99476.33
2023-01-19T02:23:10.232Z,99484.25
2023-01-19T02:24:15.464Z,99481.36
2023-01-19T02:25:20.227Z,99498.22
2023-01-19T02:26:27.063Z,99507.27
2023-01-19T02:27:30.780Z,99510.19
2023-01-19T02:28:34.493Z,99510.09
2023-01-19T02:29:37.163Z,99503.12
2023-01-19T02:30:42.913Z,99508.39
2023-01-19T02:31:46.679Z,99497.21
2023-01-19T02:32:50.558Z,99501.99
2023-01-19T02:33:56.099Z,99505.38
2023-01-19T02:34:59.808Z,99506.23
2023-01-19T02:36:03.518Z,99509.62
2023-01-19T02:37:13.920Z,99502.56
2023-01-19T02:38:19.689Z,99496.97
2023-01-19T02:39:27.934Z,99500.84
2023-01-19T02:40:33.832Z,99507.40
2023-01-19T02:41:41.724Z,99507.50
2023-01-19T02:42:47.114Z,99510.13
2023-01-19T02:43:54.505Z,99495.05
2023-01-19T02:44:58.507Z,99497.50
2023-01-19T02:46:01.236Z,99487.60
2023-01-19T02:47:04.995Z,99484.02
2023-01-19T02:48:07.459Z,99463.23
2023-01-19T02:49:10.024Z,99448.80
2023-01-19T02:50:33.058Z,99447.66
2023-01-19T02:51:36.893Z,99453.88
2023-01-19T02:52:40.485Z,99468.61
2023-01-19T02:54:03.003Z,99468.70
2023-01-19T02:55:12.043Z,99476.95
2023-01-19T02:56:24.945Z,99485.91
2023-01-19T02:57:34.298Z,99489.02
2023-01-19T02:58:55.140Z,99490.56
2023-01-19T03:00:10.555Z,99493.70
2023-01-19T03:01:19.717Z,99494.17
2023-01-19T03:02:26.946Z,99476.55
2023-01-19T03:03:33.498Z,99466.00
2023-01-19T03:04:41.704Z,99461.66
2023-01-19T03:06:02.447Z,99459.18
2023-01-19T03:07:11.280Z,99468.80
2023-01-19T03:08:25.330Z,99473.03
2023-01-19T03:09:31.970Z,99477.46
2023-01-19T03:10:43.102Z,99476.08
2023-01-19T03:11:48.483Z,99482.20
2023-01-19T03:13:03.091Z,99472.69
2023-01-19T03:14:09.703Z,99471.27
2023-01-19T03:15:23.020Z,99471.04
2023-01-19T03:16:31.691Z,99477.44
2023-01-19T03:17:35.566Z,99474.80
2023-01-19T03:18:40.115Z,99474.31
2023-01-19T03:19:46.544Z,99482.72
2023-01-19T03:20:51.619Z,99485.72
2023-01-19T03:22:01.710Z,99494.74
2023-01-19T03:23:06.983Z,99503.71
2023-01-19T03:24:15.637Z,99500.58
2023-01-19T03:25:19.768Z,99497.36
2023-01-19T03:26:23.900Z,99502.46
2023-01-19T03:27:30.302Z,99503.22
2023-01-19T03:28:35.683Z,99506.13
2023-01-19T03:29:41.181Z,99505.86
2023-01-19T03:30:46.295Z,99510.02
2023-01-19T03:31:51.431Z,99502.86
2023-01-19T03:33:00.015Z,99499.56
2023-01-19T03:34:08.666Z,99503.80
2023-01-19T03:35:13.425Z,99496.07
2023-01-19T03:36:19.024Z,99498.70
2023-01-19T03:37:25.970Z,99489.95
2023-01-19T03:38:34.286Z,99493.44
2023-01-19T03:39:38.318Z,99497.68
2023-01-19T03:40:44.214Z,99496.07
2023-01-19T03:41:48.452Z,99496.16
2023-01-19T03:42:55.195Z,99497.77
2023-01-19T03:44:00.843Z,99502.19
2023-01-19T03:45:04.086Z,99503.89
2023-01-19T03:46:08.384Z,99501.25
2023-01-19T03:47:15.243Z,99500.58
2023-01-19T03:48:18.883Z,99502.38
2023-01-19T03:49:23.533Z,99505.19
2023-01-19T03:50:29.027Z,99500.00
2023-01-19T03:51:35.281Z,99502.55
2023-01-19T03:52:40.629Z,99509.52
2023-01-19T03:53:43.926Z,99507.64
2023-01-19T03:54:47.849Z,99510.10
2023-01-19T03:55:52.504Z,99505.67
2023-01-19T03:56:55.287Z,99505.59
2023-01-19T03:57:59.095Z,99502.02
2023-01-19T03:59:02.809Z,99515.10
2023-01-19T04:00:07.551Z,99501.25
2023-01-19T04:01:13.230Z,99505.09
2023-01-19T04:02:18.875Z,99503.48
2023-01-19T04:03:23.729Z,99507.18
2023-01-19T04:04:28.376Z,99506.59
2023-01-19T04:05:32.300Z,99507.39
2023-01-19T04:06:35.398Z,99502.88
2023-01-19T04:07:38.995Z,99498.55
2023-01-19T04:08:42.730Z,99498.55
2023-01-19T04:09:48.048Z,99498.37
2023-01-19T04:10:51.390Z,99498.37
2023-01-19T04:11:54.060Z,99499.95
2023-01-19T04:13:02.486Z,99502.50
2023-01-19T04:14:06.401Z,99504.28
2023-01-19T04:15:09.066Z,99510.58
2023-01-19T04:16:15.123Z,99509.94
2023-01-19T04:17:19.004Z,99502.20
2023-01-19T04:18:21.775Z,99507.73
2023-01-19T04:19:27.820Z,99511.30
2023-01-19T04:20:30.768Z,99508.84
2023-01-19T04:21:33.231Z,99521.37
2023-01-19T04:22:36.213Z,99517.12
2023-01-19T04:23:39.925Z,99519.94
2023-01-19T04:24:42.597Z,99521.80
2023-01-19T04:25:45.162Z,99521.97
2023-01-19T04:26:50.563Z,99518.70
2023-01-19T04:27:53.747Z,99526.80
2023-01-19T04:28:58.495Z,99526.20
2023-01-19T04:30:01.235Z,99533.41
2023-01-19T04:31:06.109Z,99531.21
2023-01-19T04:32:09.949Z,99530.11
2023-01-19T04:33:13.558Z,99535.29
2023-01-19T04:34:17.275Z,99532.74
2023-01-19T04:35:19.737Z,99529.59
2023-01-19T04:36:23.448Z,99534.69
2023-01-19T04:37:27.371Z,99532.91
2023-01-19T04:38:30.906Z,99536.30
2023-01-19T04:39:34.484Z,99535.37
2023-01-19T04:40:38.198Z,99529.59
2023-01-19T04:41:41.110Z,99533.67
2023-01-19T04:42:45.111Z,99531.04
2023-01-19T04:43:50.537Z,99536.11
2023-01-19T04:44:55.607Z,99536.97
2023-01-19T04:45:59.800Z,99525.11
2023-01-19T04:47:04.244Z,99532.41
2023-01-19T04:48:07.956Z,99531.64
2023-01-19T04:49:15.117Z,99536.91
2023-01-19T04:50:17.594Z,99537.95
2023-01-19T04:51:23.069Z,99536.05
2023-01-19T04:52:30.247Z,99531.64
2023-01-19T04:53:33.731Z,99534.19
2023-01-19T04:54:37.275Z,99522.05
2023-01-19T04:55:45.525Z,99527.75
2023-01-19T04:56:49.098Z,99524.33
2023-01-19T04:57:52.472Z,99522.30
2023-01-19T04:58:59.194Z,99523.70
2023-01-19T05:00:04.575Z,99517.42
2023-01-19T05:01:08.986Z,99514.70
2023-01-19T05:02:11.493Z,99513.69
2023-01-19T05:03:16.362Z,99513.59
2023-01-19T05:04:19.754Z,99506.47
2023-01-19T05:05:24.511Z,99520.39
2023-01-19T05:06:28.118Z,99516.57
2023-01-19T05:07:31.716Z,99523.23
2023-01-19T05:08:34.868Z,99521.45
2023-01-19T05:09:39.687Z,99522.77
2023-01-19T05:10:44.273Z,99512.07
2023-01-19T05:11:48.983Z,99510.45
2023-01-19T05:12:53.055Z,99513.00
2023-01-19T05:13:56.518Z,99514.53
2023-01-19T05:14:59.605Z,99519.55
2023-01-19T05:16:04.684Z,99511.05
2023-01-19T05:17:08.189Z,99518.02
2023-01-19T05:18:11.895Z,99517.17
2023-01-19T05:19:17.113Z,99515.38
2023-01-19T05:20:20.400Z,99512.75
2023-01-19T05:21:23.598Z,99510.20
2023-01-19T05:22:27.051Z,99521.58
2023-01-19T05:23:32.342Z,99523.37
2023-01-19T05:24:37.033Z,99524.98
2023-01-19T05:25:40.178Z,99525.75
2023-01-19T05:26:44.876Z,99523.88
2023-01-19T05:27:49.315Z,99527.45
2023-01-19T05:28:53.419Z,99521.24
2023-01-19T05:29:56.923Z,99516.91
2023-01-19T05:31:00.040Z,99516.15
2023-01-19T05:32:03.660Z,99518.78
2023-01-19T05:33:06.071Z,99512.66
2023-01-19T05:34:11.471Z,99518.86
2023-01-19T08:06:58.323Z,99485.80
2023-01-19T08:08:02.293Z,99492.39
2023-01-19T08:09:08.500Z,99497.58
2023-01-19T08:10:12.823Z,99492.13
2023-01-19T08:11:16.315Z,99500.51
2023-01-19T08:12:19.817Z,99508.79
2023-01-19T08:13:23.151Z,99491.00
2023-01-19T08:14:25.458Z,99496.00
2023-01-19T08:15:30.147Z,99501.09
2023-01-19T08:16:35.916Z,99500.33
2023-01-19T08:17:39.330Z,99499.63
2023-01-19T08:18:42.626Z,99496.94
2023-01-19T08:19:54.890Z,99500.48
2023-01-19T08:21:01.024Z,99504.42
2023-01-19T08:22:04.511Z,99512.27
2023-01-19T08:23:09.352Z,99521.23
2023-01-19T08:24:15.032Z,99522.02
2023-01-19T08:25:20.058Z,99513.68
2023-01-19T08:26:30.874Z,99520.27
2023-01-19T08:27:34.154Z,99527.06
2023-01-19T08:28:37.048Z,99517.63
2023-01-19T08:29:40.008Z,99523.34
2023-01-19T08:30:45.507Z,99523.02
2023-01-19T08:31:51.712Z,99515.35
2023-01-19T08:32:56.302Z,99514.18
2023-01-19T08:33:59.675Z,99509.23
2023-01-19T08:35:04.044Z,99509.69
2023-01-19T08:36:07.638Z,99510.55
2023-01-19T08:37:09.991Z,99508.12
2023-01-19T08:38:14.538Z,99508.84
2023-01-19T08:39:17.653Z,99506.59
2023-01-19T08:40:22.198Z,99510.66
2023-01-19T08:41:25.798Z,99504.72
2023-01-19T08:42:29.123Z,99507.91
2023-01-19T08:43:31.882Z,99507.92
2023-01-19T08:44:34.733Z,99512.38
2023-01-19T08:45:43.904Z,99503.89
2023-01-19T08:46:49.301Z,99510.47
2023-01-19T08:47:52.874Z,99504.92
2023-01-19T08:48:55.627Z,99503.63
2023-01-19T08:49:59.155Z,99496.26
2023-01-19T08:51:02.651Z,99506.90
2023-01-19T08:52:08.690Z,99497.87
2023-01-19T08:53:12.077Z,99500.59
2023-01-19T08:54:14.310Z,99500.90
2023-01-19T08:55:18.294Z,99497.02
2023-01-19T08:56:21.633Z,99491.17
2023-01-19T08:57:24.930Z,99495.71
2023-01-19T08:58:28.322Z,99483.36
2023-01-19T08:59:30.581Z,99482.03
2023-01-19T09:00:34.714Z,99482.97
2023-01-19T09:01:40.433Z,99481.19
2023-01-19T09:02:43.878Z,99474.30
2023-01-19T09:03:47.329Z,99483.16
2023-01-19T09:04:54.072Z,99469.80
2023-01-19T09:05:57.470Z,99467.83
2023-01-19T09:07:01.311Z,99466.20
2023-01-19T09:08:08.858Z,99456.98
2023-01-19T09:09:12.343Z,99464.96
2023-01-19T09:10:17.939Z,99462.04
2023-01-19T09:11:21.546Z,99461.95
2023-01-19T09:12:25.186Z,99460.03
2023-01-19T09:13:29.117Z,99459.50
2023-01-19T09:14:32.708Z,99473.91
2023-01-19T09:15:37.551Z,99469.51
2023-01-19T09:16:40.142Z,99458.77
2023-01-19T09:17:44.385Z,99457.92
2023-01-19T09:18:48.503Z,99458.36
2023-01-19T09:19:51.899Z,99459.12
2023-01-19T09:20:57.817Z,99457.61
2023-01-19T09:22:03.208Z,99457.05
2023-01-19T09:23:06.923Z,99454.13
2023-01-19T09:24:10.140Z,99459.50
2023-01-19T09:25:13.931Z,99453.62
2023-01-19T09:26:17.959Z,99449.06
2023-01-19T09:27:21.315Z,99442.47
2023-01-19T09:28:24.760Z,99448.61
2023-01-19T09:29:28.163Z,99453.70
2023-01-19T09:30:33.651Z,99443.89
2023-01-19T09:31:38.133Z,99451.06
2023-01-19T09:32:42.032Z,99454.92
2023-01-19T09:33:45.417Z,99448.43
2023-01-19T09:34:47.985Z,99440.87
2023-01-19T09:35:52.431Z,99451.82
2023-01-19T09:36:55.855Z,99449.53
2023-01-19T09:37:59.206Z,99437.95
2023-01-19T09:39:04.299Z,99454.25
2023-01-19T09:40:11.157Z,99446.90
2023-01-19T09:41:16.532Z,99446.90
2023-01-19T09:42:26.410Z,99439.55
2023-01-19T09:43:42.757Z,99429.75
2023-01-19T09:44:47.101Z,99432.08
2023-01-19T09:45:57.289Z,99429.44
2023-01-19T09:47:01.868Z,99425.38
2023-01-19T09:48:08.375Z,99423.03
2023-01-19T09:49:18.568Z,99437.13
2023-01-19T09:50:23.949Z,99419.73
2023-01-19T09:51:28.911Z,99416.95
2023-01-19T09:52:32.620Z,99418.83
2023-01-19T09:53:56.214Z,99414.73
2023-01-19T09:54:59.683Z,99414.17
2023-01-19T09:56:06.113Z,99413.23
2023-01-19T09:57:13.566Z,99414.92
2023-01-19T09:58:22.520Z,99405.15
2023-01-19T09:59:32.828Z,99407.50
2023-01-19T10:00:35.641Z,99409.19
2023-01-19T10:02:01.391Z,99405.15
2023-01-19T10:03:12.098Z,99401.39
2023-01-19T10:04:37.622Z,99401.92
2023-01-19T10:05:44.182Z,99404.76
2023-01-19T10:06:48.606Z,99397.88
2023-01-19T10:08:01.810Z,99394.84
2023-01-19T10:09:07.714Z,99388.09
2023-01-19T10:10:24.646Z,99394.84
2023-01-19T10:11:42.066Z,99386.59
2023-01-19T10:12:39.336Z,99382.71
2023-01-19T10:13:47.851Z,99380.72
2023-01-19T10:15:08.679Z,99386.09
2023-01-19T10:16:33.618Z,99383.77
2023-01-19T10:17:38.159Z,99375.98
2023-01-19T10:18:50.309Z,99379.44
2023-01-19T10:19:55.940Z,99386.00
2023-01-19T10:21:05.571Z,99366.13
2023-01-19T10:22:23.847Z,99372.91
2023-01-19T10:23:30.897Z,99365.08
2023-01-19T10:24:35.208Z,99370.46
2023-01-19T10:25:39.840Z,99370.80
2023-01-19T10:26:44.100Z,99370.90
2023-01-19T10:27:49.810Z,99373.20
2023-01-19T10:28:57.076Z,99366.77
2023-01-19T10:30:01.980Z,99355.80
2023-01-19T10:31:06.849Z,99352.21
2023-01-19T10:32:23.363Z,99359.16
2023-01-19T10:33:29.469Z,99350.72
2023-01-19T10:34:35.507Z,99354.21
2023-01-19T10:35:39.334Z,99347.64
2023-01-19T10:36:42.667Z,99349.67
2023-01-19T10:37:46.527Z,99343.95
2023-01-19T10:38:49.395Z,99352.31
2023-01-19T10:39:53.908Z,99352.52
2023-01-19T10:40:59.342Z,99352.41
2023-01-19T10:42:03.195Z,99341.20
2023-01-19T10:43:25.778Z,99340.69
2023-01-19T10:44:30.198Z,99347.56
2023-01-19T10:45:36.650Z,99334.56
2023-01-19T10:46:44.049Z,99346.82
2023-01-19T10:47:49.288Z,99337.29
2023-01-19T10:48:55.662Z,99340.47
2023-01-19T10:50:00.723Z,99330.19
2023-01-19T10:51:05.141Z,99336.75
2023-01-19T10:52:09.262Z,99335.55
2023-01-19T10:53:22.956Z,99332.30
2023-01-19T10:54:28.529Z,99338.02
2023-01-19T10:55:38.694Z,99331.00
2023-01-19T10:56:44.033Z,99335.66
2023-01-19T10:57:49.662Z,99335.05
2023-01-19T10:58:53.073Z,99334.20
2023-01-19T10:59:55.850Z,99329.42
2023-01-19T11:01:01.819Z,99334.36
2023-01-19T11:02:07.448Z,99337.77
2023-01-19T11:03:27.971Z,99331.85
2023-01-19T11:04:30.442Z,99334.36
2023-01-19T11:05:35.415Z,99331.92
2023-01-19T11:06:39.785Z,99332.34
2023-01-19T11:07:43.977Z,99324.72
2023-01-19T11:08:50.396Z,99336.85
2023-01-19T11:10:13.874Z,99329.66
2023-01-19T11:11:17.878Z,99324.92
2023-01-19T11:12:22.760Z,99321.00
2023-01-19T11:13:27.480Z,99323.17
2023-01-19T11:14:32.080Z,99315.45
2023-01-19T11:15:36.833Z,99320.86
2023-01-19T11:16:40.906Z,99310.27
2023-01-19T11:17:49.442Z,99312.08
2023-01-19T11:18:56.452Z,99307.19
2023-01-19T11:20:01.714Z,99310.58
2023-01-19T11:21:07.215Z,99311.47
2023-01-19T11:22:19.170Z,99311.02
2023-01-19T11:23:23.813Z,99313.38
2023-01-19T11:24:27.032Z,99316.53
2023-01-19T11:25:31.448Z,99316.76
2023-01-19T11:26:36.845Z,99309.04
2023-01-19T11:27:41.187Z,99309.77
2023-01-19T11:28:47.403Z,99305.06
2023-01-19T11:29:52.449Z,99307.02
2023-01-19T11:30:56.131Z,99306.69
2023-01-19T11:32:01.522Z,99297.79
2023-01-19T11:33:06.678Z,99303.20
2023-01-19T11:34:26.127Z,99301.28
2023-01-19T11:36:49.091Z,99297.42
2023-01-19T11:37:54.165Z,99286.47
2023-01-19T11:39:17.345Z,99294.12
2023-01-19T11:40:21.561Z,99291.61
2023-01-19T11:41:28.929Z,99278.30
2023-01-19T11:42:38.070Z,99278.64
2023-01-19T11:43:49.017Z,99274.19
2023-01-19T11:44:49.170Z,99281.17
2023-01-19T11:45:54.070Z,99274.81
2023-01-19T11:46:59.626Z,99277.57
2023-01-19T11:48:05.747Z,99280.84
2023-01-19T11:49:11.127Z,99279.89
2023-01-19T11:50:26.149Z,99273.75
2023-01-19T11:51:34.785Z,99269.16
2023-01-19T11:52:38.984Z,99274.45
2023-01-19T11:53:44.365Z,99268.30
2023-01-19T11:54:49.755Z,99261.72
2023-01-19T11:56:06.946Z,99267.35
2023-01-19T11:57:20.989Z,99268.67
2023-01-19T11:58:25.546Z,99262.31
2023-01-19T11:59:29.831Z,99259.05
2023-01-19T12:00:36.745Z,99263.27
2023-01-19T12:01:46.189Z,99267.75
2023-01-19T12:02:51.051Z,99273.49
2023-01-19T12:04:13.886Z,99276.87
2023-01-19T12:05:18.987Z,99276.09
2023-01-19T12:06:37.810Z,99269.86
2023-01-19T12:07:41.422Z,99280.17
2023-01-19T12:08:49.510Z,99282.34
2023-01-19T12:09:57.727Z,99280.79
2023-01-19T12:11:03.633Z,99283.94
2023-01-19T12:12:09.749Z,99289.58
2023-01-19T12:13:23.808Z,99284.84
2023-01-19T12:14:29.908Z,99291.72
2023-01-19T12:15:43.870Z,99285.23
2023-01-19T12:16:47.275Z,99284.79
2023-01-19T12:17:51.913Z,99288.75
2023-01-19T12:18:56.474Z,99296.23
2023-01-19T12:20:17.207Z,99301.77
2023-01-19T12:21:22.485Z,99306.56
2023-01-19T12:22:30.376Z,99311.01
2023-01-19T12:23:39.072Z,99308.22
2023-01-19T12:24:44.496Z,99307.89
2023-01-19T12:26:01.346Z,99304.51
2023-01-19T12:27:09.680Z,99296.92
2023-01-19T12:28:14.962Z,99310.31
2023-01-19T12:29:24.044Z,99299.01
2023-01-19T12:30:30.494Z,99298.05
2023-01-19T12:31:34.742Z,99293.31
2023-01-19T12:32:37.970Z,99291.40
2023-01-19T12:33:40.950Z,99298.16
2023-01-19T12:34:48.293Z,99298.55
2023-01-19T12:36:11.174Z,99294.55
2023-01-19T12:37:24.766Z,99291.80
2023-01-19T12:38:42.254Z,99283.23
2023-01-19T12:39:48.939Z,99282.61
2023-01-19T12:40:54.027Z,99293.94
2023-01-19T12:42:04.077Z,99297.09
2023-01-19T12:43:10.758Z,99304.55
2023-01-19T12:44:17.983Z,99297.33
2023-01-19T12:45:26.552Z,99301.77
2023-01-19T12:46:31.538Z,99295.17
2023-01-19T12:47:34.983Z,99297.43
2023-01-19T12:48:39.220Z,99291.80
2023-01-19T12:49:46.707Z,99291.91
2023-01-19T12:50:49.996Z,99302.11
2023-01-19T12:51:54.044Z,99297.91
2023-01-19T12:52:58.249Z,99304.08
2023-01-19T12:54:03.047Z,99304.19
2023-01-19T12:55:16.544Z,99307.91
2023-01-19T12:56:25.980Z,99312.25
2023-01-19T12:57:40.157Z,99303.23
2023-01-19T12:58:45.363Z,99306.84
2023-01-19T12:59:50.494Z,99305.66
2023-01-19T13:01:13.003Z,99303.73
2023-01-19T13:02:27.700Z,99305.03
2023-01-19T13:03:33.396Z,99304.32
2023-01-19T13:04:35.858Z,99304.92
2023-01-19T13:05:40.861Z,99306.11
2023-01-19T13:06:53.195Z,99309.27
2023-01-19T13:08:04.798Z,99305.88
2023-01-19T13:09:26.941Z,99306.29
2023-01-19T13:10:52.955Z,99308.77
2023-01-19T13:12:01.064Z,99300.58
2023-01-19T13:13:07.112Z,99304.81
2023-01-19T13:14:25.785Z,99307.81
2023-01-19T13:15:36.173Z,99308.30
2023-01-19T13:16:41.676Z,99303.02
2023-01-19T13:17:48.488Z,99298.44
2023-01-19T13:18:56.925Z,99295.92
2023-01-19T13:20:06.065Z,99305.28
2023-01-19T13:21:09.917Z,99296.75
2023-01-19T13:22:30.947Z,99303.86
2023-01-19T13:23:50.537Z,99295.20
2023-01-19T13:25:09.032Z,99303.88
2023-01-19T13:26:14.887Z,99299.55
2023-01-19T13:27:17.216Z,99305.84
2023-01-19T13:28:22.524Z,99301.00
2023-01-19T13:29:34.373Z,99304.61
2023-01-19T13:30:40.487Z,99305.95
2023-01-19T13:31:50.162Z,99302.57
2023-01-19T13:32:55.452Z,99301.72
2023-01-19T13:34:00.515Z,99299.08
2023-01-19T13:35:05.003Z,99308.60
2023-01-19T13:36:09.212Z,99299.19
2023-01-19T13:37:14.268Z,99310.06
2023-01-19T13:38:17.505Z,99303.91
2023-01-19T13:39:22.120Z,99323.89
2023-01-19T13:40:27.308Z,99321.24
2023-01-19T13:41:32.356Z,99315.09
2023-01-19T13:42:41.568Z,99312.68
2023-01-19T13:43:46.154Z,99314.52
2023-01-19T13:44:54.294Z,99309.22
2023-01-19T13:45:57.983Z,99317.75
2023-01-19T13:47:02.080Z,99319.32
2023-01-19T13:48:08.033Z,99309.09
2023-01-19T13:49:18.000Z,99310.41
2023-01-19T13:50:23.270Z,99315.59
2023-01-19T13:51:26.565Z,99314.40
2023-01-19T13:52:30.621Z,99318.36
2023-01-19T13:53:36.096Z,99311.62
2023-01-19T13:54:44.202Z,99312.70
2023-01-19T13:55:49.929Z,99313.66
2023-01-19T13:56:56.322Z,99308.97
2023-01-19T13:58:03.227Z,99316.06
2023-01-19T13:59:13.527Z,99315.48
2023-01-19T14:00:20.508Z,99307.37
2023-01-19T14:01:23.476Z,99310.19
2023-01-19T14:02:26.475Z,99309.56
2023-01-19T14:03:30.168Z,99318.48
2023-01-19T14:04:36.064Z,99311.97
2023-01-19T14:05:42.169Z,99310.17
2023-01-19T14:06:47.650Z,99316.34
2023-01-19T14:08:01.689Z,99311.97
2023-01-19T14:09:12.164Z,99313.27
2023-01-19T14:10:17.332Z,99308.58
2023-01-19T14:11:27.314Z,99305.70
2023-01-19T14:12:32.445Z,99318.72
2023-01-19T14:13:38.601Z,99313.42
2023-01-19T14:14:45.054Z,99317.77
2023-01-19T14:15:49.104Z,99319.91
2023-01-19T14:16:52.786Z,99317.26
2023-01-19T14:18:09.475Z,99326.42
2023-01-19T14:19:17.134Z,99330.19
2023-01-19T14:20:30.349Z,99323.53
2023-01-19T14:21:40.577Z,99328.27
2023-01-19T14:22:46.873Z,99328.99
2023-01-19T14:24:09.496Z,99332.34
2023-01-19T14:25:29.310Z,99337.77
2023-01-19T14:26:42.300Z,99330.30
2023-01-19T14:27:45.799Z,99323.30
2023-01-19T14:28:49.516Z,99339.09
2023-01-19T14:29:55.532Z,99341.14
2023-01-19T14:31:00.567Z,99334.30
2023-01-19T14:32:05.564Z,99333.70
2023-01-19T14:33:10.678Z,99329.93
2023-01-19T14:34:35.350Z,99329.11
